Time;durP1;ratioP1;P1;durP2;ratioP2;P2;SDS_P1;SDS_P2;PMS_P1;PMS_P2;Temp;Humidity;BMP_temperature;BMP_pressure;BME280_temperature;BME280_humidity;BME280_pressure;Samples;Min_cycle;Max_cycle;Signal;HPM_P1;HPM_P2
2021/10/28 00:14:24;;;;;;;35.30;17.95;;;9.90;99.90;;;;;;4976045;28;20107;-82
2021/10/28 00:16:51;;;;;;;36.30;18.00;;;9.90;99.90;;;;;;5010292;28;20411;-83
2021/10/28 00:19:18;;;;;;;36.22;17.92;;;9.90;99.90;;;;;;5008791;28;20124;-83
2021/10/28 00:21:45;;;;;;;29.30;15.90;;;9.90;99.90;;;;;;5008265;28;20183;-83
2021/10/28 00:24:13;;;;;;;30.92;16.67;;;9.90;99.90;;;;;;5024130;28;20064;-83
2021/10/28 00:26:41;;;;;;;28.02;16.65;;;10.00;99.90;;;;;;5027416;28;20044;-83
2021/10/28 00:29:16;;;;;;;31.92;17.02;;;10.00;99.90;;;;;;5033120;28;20059;-83
2021/10/28 00:31:44;;;;;;;28.05;16.55;;;10.00;99.90;;;;;;5006236;28;20121;-81
2021/10/28 00:34:10;;;;;;;24.38;15.77;;;10.00;99.90;;;;;;5006312;28;20051;-81
2021/10/28 00:36:37;;;;;;;32.88;16.67;;;10.00;99.90;;;;;;5008568;28;20457;-81
2021/10/28 00:39:06;;;;;;;31.50;17.45;;;10.00;99.90;;;;;;5009740;28;20071;-81
2021/10/28 00:41:31;;;;;;;33.97;16.40;;;9.90;99.90;;;;;;5007516;28;20692;-81
2021/10/28 00:44:00;;;;;;;31.27;17.23;;;10.00;99.90;;;;;;5011420;28;20498;-81
2021/10/28 00:46:29;;;;;;;30.92;15.82;;;10.00;99.90;;;;;;5005226;28;20041;-81
2021/10/28 00:48:55;;;;;;;33.47;16.77;;;9.90;99.90;;;;;;5011299;28;20051;-81
2021/10/28 00:51:27;;;;;;;29.13;16.15;;;9.80;99.90;;;;;;5020428;28;20072;-81
2021/10/28 00:53:55;;;;;;;33.38;16.63;;;9.80;99.90;;;;;;5014900;28;20048;-82
2021/10/28 00:56:23;;;;;;;36.50;17.67;;;9.80;99.90;;;;;;5010564;28;20041;-83
2021/10/28 00:58:49;;;;;;;36.88;18.42;;;9.70;99.90;;;;;;5038695;28;20079;-81
2021/10/28 01:01:15;;;;;;;36.35;18.38;;;9.70;99.90;;;;;;5022365;28;20048;-81
2021/10/28 01:03:42;;;;;;;34.65;17.92;;;9.60;99.90;;;;;;5011913;28;20080;-82
2021/10/28 01:06:09;;;;;;;33.83;17.15;;;9.60;99.90;;;;;;5028582;28;20479;-82
2021/10/28 01:08:39;;;;;;;35.50;17.65;;;9.60;99.90;;;;;;5041144;28;20048;-82
2021/10/28 01:11:06;;;;;;;41.33;17.92;;;9.50;99.90;;;;;;5043425;28;20045;-82
2021/10/28 01:13:34;;;;;;;36.80;17.63;;;9.50;99.90;;;;;;5024270;28;20029;-82
2021/10/28 01:16:00;;;;;;;39.70;17.27;;;9.50;99.90;;;;;;5029547;28;20047;-82
2021/10/28 01:18:28;;;;;;;30.27;18.50;;;9.50;99.90;;;;;;5031129;28;20084;-82
2021/10/28 01:20:55;;;;;;;29.85;16.80;;;9.50;99.90;;;;;;5029305;28;20569;-82
2021/10/28 01:23:23;;;;;;;29.50;17.88;;;9.40;99.90;;;;;;5027322;28;20044;-81
2021/10/28 01:26:18;;;;;;;34.55;18.48;;;9.30;99.90;;;;;;5035169;28;20049;-82
2021/10/28 01:28:57;;;;;;;26.80;16.95;;;9.30;99.90;;;;;;5022250;28;20045;-82
2021/10/28 01:31:26;;;;;;;34.65;17.40;;;9.30;99.90;;;;;;5023081;28;20052;-82
2021/10/28 01:33:54;;;;;;;28.38;14.90;;;9.30;99.90;;;;;;5017368;28;20049;-83
2021/10/28 01:36:22;;;;;;;30.10;16.90;;;9.20;99.90;;;;;;5018104;28;20372;-83
2021/10/28 01:38:49;;;;;;;34.17;16.48;;;9.20;99.90;;;;;;5009879;28;20048;-83
2021/10/28 01:41:15;;;;;;;29.67;16.65;;;9.20;99.90;;;;;;5010235;28;20045;-83
2021/10/28 01:43:42;;;;;;;29.48;16.08;;;9.20;99.90;;;;;;5023748;28;20036;-83
2021/10/28 01:46:09;;;;;;;26.88;16.92;;;9.20;99.90;;;;;;5024998;28;20083;-83
2021/10/28 01:48:40;;;;;;;32.70;17.83;;;9.10;99.90;;;;;;4987584;28;20140;-83
2021/10/28 01:51:10;;;;;;;35.00;16.95;;;9.10;99.90;;;;;;5029757;28;20525;-83
2021/10/28 01:53:37;;;;;;;33.95;16.70;;;9.10;99.90;;;;;;5003823;28;20049;-83
2021/10/28 01:56:05;;;;;;;34.35;18.33;;;9.10;99.90;;;;;;5018492;28;20502;-83
2021/10/28 01:58:31;;;;;;;29.95;16.92;;;9.10;99.90;;;;;;5023180;28;20053;-83
2021/10/28 02:00:57;;;;;;;32.88;16.95;;;9.10;99.90;;;;;;5029492;28;20126;-83
2021/10/28 02:03:23;;;;;;;34.67;17.13;;;9.10;99.90;;;;;;5016571;28;20103;-82
2021/10/28 02:05:49;;;;;;;37.85;17.85;;;9.10;99.90;;;;;;5008122;28;20525;-81
2021/10/28 02:08:15;;;;;;;30.73;17.20;;;9.00;99.90;;;;;;5030828;28;20213;-81
2021/10/28 02:10:41;;;;;;;35.60;17.50;;;9.10;99.90;;;;;;5007968;28;20045;-81
2021/10/28 02:13:07;;;;;;;32.00;17.27;;;9.00;99.90;;;;;;5025781;28;20049;-82
2021/10/28 02:15:33;;;;;;;38.20;17.40;;;9.00;99.90;;;;;;4983652;28;20030;-81
2021/10/28 02:17:59;;;;;;;27.65;16.42;;;9.00;99.90;;;;;;5029059;28;20053;-82
2021/10/28 02:20:25;;;;;;;29.02;15.75;;;8.90;99.90;;;;;;5011794;28;20049;-82
2021/10/28 02:22:50;;;;;;;26.50;16.23;;;8.90;99.90;;;;;;5010732;28;20481;-82
2021/10/28 02:25:17;;;;;;;35.45;18.08;;;8.90;99.90;;;;;;5013421;28;20037;-82
2021/10/28 02:27:43;;;;;;;28.30;16.92;;;8.90;99.90;;;;;;5007722;28;20127;-81
2021/10/28 02:30:10;;;;;;;38.28;18.23;;;8.90;99.90;;;;;;5034595;28;20492;-82
2021/10/28 02:32:36;;;;;;;30.80;17.23;;;8.90;99.90;;;;;;5034736;28;20045;-82
2021/10/28 02:35:04;;;;;;;37.40;18.38;;;8.90;99.90;;;;;;5006434;28;20041;-82
2021/10/28 02:37:29;;;;;;;35.00;18.80;;;8.90;99.90;;;;;;5028096;28;20450;-83
2021/10/28 02:39:55;;;;;;;36.13;18.65;;;8.90;99.90;;;;;;5028915;28;20084;-82
2021/10/28 02:42:21;;;;;;;29.40;17.52;;;8.90;99.90;;;;;;5025755;28;20483;-82
2021/10/28 02:44:47;;;;;;;35.58;19.92;;;8.90;99.90;;;;;;5023254;28;20644;-82
2021/10/28 02:47:14;;;;;;;36.83;17.23;;;8.90;99.90;;;;;;5026629;28;20037;-82
2021/10/28 02:49:40;;;;;;;34.30;17.98;;;8.90;99.90;;;;;;5035339;28;20106;-83
2021/10/28 02:52:06;;;;;;;35.60;17.70;;;8.90;99.90;;;;;;5010681;28;20435;-83
2021/10/28 02:54:32;;;;;;;34.15;18.52;;;8.90;99.90;;;;;;5046245;28;20037;-83
2021/10/28 02:56:58;;;;;;;42.72;19.05;;;8.90;99.90;;;;;;5008127;28;20045;-83
2021/10/28 02:59:23;;;;;;;47.22;18.10;;;8.80;99.90;;;;;;5028093;28;20099;-83
2021/10/28 03:01:52;;;;;;;41.15;18.75;;;8.90;99.90;;;;;;5037329;28;20076;-83
2021/10/28 03:04:20;;;;;;;33.70;17.73;;;8.90;99.90;;;;;;5002277;28;20053;-84
2021/10/28 03:06:47;;;;;;;30.75;16.25;;;8.80;99.90;;;;;;5026784;28;20045;-83
2021/10/28 03:09:17;;;;;;;36.47;18.65;;;8.80;99.90;;;;;;5012280;28;20037;-83
2021/10/28 03:11:43;;;;;;;33.50;18.45;;;8.90;99.90;;;;;;5036296;28;20446;-84
2021/10/28 03:14:12;;;;;;;31.55;18.23;;;8.90;99.90;;;;;;5029584;28;20040;-84
2021/10/28 03:16:57;;;;;;;42.47;19.15;;;8.80;99.90;;;;;;5012736;28;20043;-84
2021/10/28 03:27:37;;;;;;;40.13;17.73;;;8.80;99.90;;;;;;5044238;28;20045;-84
2021/10/28 03:30:05;;;;;;;33.05;16.77;;;8.70;99.90;;;;;;5029409;28;20075;-84
2021/10/28 03:32:31;;;;;;;36.13;18.17;;;8.70;99.90;;;;;;5038010;28;20076;-84
2021/10/28 03:34:56;;;;;;;37.58;18.33;;;8.70;99.90;;;;;;5027974;28;20524;-84
2021/10/28 03:38:00;;;;;;;39.13;19.98;;;8.70;99.90;;;;;;5012997;28;20059;-84
2021/10/28 03:45:42;;;;;;;32.85;17.48;;;8.70;99.90;;;;;;5022196;28;20045;-84
2021/10/28 04:19:56;;;;;;;29.50;16.48;;;8.60;99.90;;;;;;5028926;28;20037;-83
2021/10/28 04:30:24;;;;;;;29.83;16.30;;;8.50;99.90;;;;;;5033114;28;20816;-83
2021/10/28 04:32:51;;;;;;;28.52;15.27;;;8.50;99.90;;;;;;5014868;28;20169;-83
2021/10/28 04:35:18;;;;;;;34.05;16.05;;;8.50;99.90;;;;;;5015624;28;20067;-82
2021/10/28 04:37:45;;;;;;;30.30;14.77;;;8.50;99.90;;;;;;5028002;28;20037;-83
2021/10/28 04:40:13;;;;;;;28.60;14.82;;;8.50;99.90;;;;;;5014730;28;20052;-82
2021/10/28 04:42:39;;;;;;;24.42;15.02;;;8.50;99.90;;;;;;4999384;28;20048;-82
2021/10/28 04:45:06;;;;;;;25.02;14.80;;;8.50;99.90;;;;;;5047316;28;20560;-82
2021/10/28 04:47:32;;;;;;;35.97;16.55;;;8.50;99.90;;;;;;5042337;28;20116;-81
2021/10/28 04:49:58;;;;;;;31.25;15.27;;;8.40;99.90;;;;;;5027672;28;20123;-82
2021/10/28 04:52:24;;;;;;;30.20;14.45;;;8.50;99.90;;;;;;5037704;28;20080;-81
2021/10/28 04:54:50;;;;;;;30.30;15.73;;;8.40;99.90;;;;;;5001100;28;20049;-82
2021/10/28 04:57:16;;;;;;;31.45;15.48;;;8.40;99.90;;;;;;5031537;28;20056;-82
2021/10/28 04:59:42;;;;;;;34.63;15.75;;;8.40;99.90;;;;;;5013209;28;20410;-81
2021/10/28 05:02:08;;;;;;;34.03;16.05;;;8.40;99.90;;;;;;5041099;28;20034;-82
2021/10/28 05:04:34;;;;;;;30.77;14.80;;;8.40;99.90;;;;;;5048453;28;20472;-81
2021/10/28 05:06:59;;;;;;;27.42;15.18;;;8.30;99.90;;;;;;5030313;28;20800;-83
2021/10/28 05:09:32;;;;;;;31.48;15.13;;;8.30;99.90;;;;;;5011794;28;20071;-84
2021/10/28 05:11:59;;;;;;;28.67;14.75;;;8.20;99.90;;;;;;5047731;28;20644;-82
2021/10/28 05:14:25;;;;;;;34.58;14.88;;;8.20;99.90;;;;;;5014785;28;20522;-82
2021/10/28 05:16:57;;;;;;;27.92;14.40;;;8.20;99.90;;;;;;4999028;28;20503;-82
2021/10/28 05:19:24;;;;;;;25.40;14.68;;;8.20;99.90;;;;;;5043718;28;20491;-82
2021/10/28 05:21:50;;;;;;;39.58;14.88;;;8.20;99.90;;;;;;5039928;28;20045;-81
2021/10/28 05:24:16;;;;;;;25.63;15.18;;;8.20;99.90;;;;;;5016828;28;20407;-81
2021/10/28 05:26:42;;;;;;;31.35;15.43;;;8.20;99.90;;;;;;5013904;28;20037;-80
2021/10/28 05:29:07;;;;;;;32.50;14.88;;;8.20;99.90;;;;;;4991286;28;20384;-80
2021/10/28 05:31:34;;;;;;;31.95;15.07;;;8.20;99.90;;;;;;5030927;28;20083;-80
2021/10/28 05:33:59;;;;;;;29.48;16.38;;;8.20;99.90;;;;;;5014893;28;20045;-80
2021/10/28 05:36:26;;;;;;;35.03;15.93;;;8.20;99.90;;;;;;5010907;28;20067;-80
2021/10/28 05:38:52;;;;;;;30.35;16.30;;;8.30;99.90;;;;;;4994955;28;20083;-81
2021/10/28 05:41:18;;;;;;;31.17;16.15;;;8.20;99.90;;;;;;4995113;28;20052;-81
2021/10/28 05:43:44;;;;;;;33.88;17.25;;;8.10;99.90;;;;;;5014244;28;20040;-82
2021/10/28 05:46:10;;;;;;;23.42;15.35;;;8.20;99.90;;;;;;5029249;28;20045;-81
2021/10/28 05:48:36;;;;;;;28.67;14.95;;;8.20;99.90;;;;;;5014973;28;20041;-81
2021/10/28 05:51:02;;;;;;;35.05;16.08;;;8.10;99.90;;;;;;4997510;28;20390;-82
2021/10/28 05:53:28;;;;;;;32.47;16.50;;;8.20;99.90;;;;;;5013871;28;20048;-82
2021/10/28 05:55:54;;;;;;;35.83;17.67;;;8.10;99.90;;;;;;5014855;28;20037;-82
2021/10/28 05:58:20;;;;;;;29.50;15.70;;;8.20;99.90;;;;;;5009433;28;20076;-82
2021/10/28 06:00:46;;;;;;;29.35;16.90;;;8.20;99.90;;;;;;5027629;28;20491;-83
2021/10/28 06:03:12;;;;;;;30.42;16.40;;;8.10;99.90;;;;;;5025178;28;20140;-81
2021/10/28 06:05:38;;;;;;;31.83;16.52;;;8.10;99.90;;;;;;5013015;28;20131;-83
2021/10/28 06:08:04;;;;;;;36.17;17.17;;;8.00;99.90;;;;;;5029687;28;20123;-83
2021/10/28 06:10:30;;;;;;;34.88;16.85;;;8.00;99.90;;;;;;5013988;28;20037;-84
2021/10/28 06:13:00;;;;;;;31.05;16.05;;;8.10;99.90;;;;;;5017113;28;20041;-83
2021/10/28 06:15:28;;;;;;;36.28;18.17;;;8.00;99.90;;;;;;5034879;28;20044;-84
2021/10/28 06:17:57;;;;;;;36.28;18.45;;;7.90;99.90;;;;;;4994695;28;20166;-84
2021/10/28 06:20:23;;;;;;;39.65;18.85;;;8.00;99.90;;;;;;4985236;28;20053;-84
2021/10/28 06:22:50;;;;;;;35.15;18.55;;;8.00;99.90;;;;;;5011310;28;20895;-84
2021/10/28 06:25:18;;;;;;;36.95;18.58;;;8.00;99.90;;;;;;5011122;28;20045;-84
2021/10/28 06:27:44;;;;;;;35.65;18.83;;;8.10;99.90;;;;;;5012898;28;20503;-84
2021/10/28 06:30:10;;;;;;;33.30;17.67;;;8.10;99.90;;;;;;4998741;28;20041;-84
2021/10/28 06:32:44;;;;;;;38.60;19.80;;;8.00;99.90;;;;;;5009013;28;20147;-84
2021/10/28 06:35:11;;;;;;;38.88;19.50;;;8.00;99.90;;;;;;5010441;28;20045;-84
2021/10/28 06:37:37;;;;;;;45.75;20.08;;;8.00;99.90;;;;;;5009749;28;20048;-85
2021/10/28 06:40:03;;;;;;;34.25;18.67;;;8.10;99.90;;;;;;5013553;28;20058;-85
2021/10/28 06:42:29;;;;;;;35.85;18.83;;;8.00;99.90;;;;;;5029175;28;20429;-85
2021/10/28 06:44:55;;;;;;;33.17;18.88;;;8.10;99.90;;;;;;5012562;28;20045;-85
2021/10/28 06:47:21;;;;;;;37.10;18.90;;;8.10;99.90;;;;;;5008936;28;20553;-86
2021/10/28 06:49:47;;;;;;;40.38;19.23;;;8.10;99.90;;;;;;4995672;28;20483;-84
2021/10/28 06:52:13;;;;;;;39.85;20.30;;;8.00;99.90;;;;;;5027157;28;20099;-84
2021/10/28 06:54:46;;;;;;;38.83;20.20;;;8.10;99.90;;;;;;5005454;28;20495;-84
2021/10/28 07:04:59;;;;;;;34.97;18.45;;;8.20;99.90;;;;;;5018820;28;20072;-81
2021/10/28 07:07:32;;;;;;;40.60;19.87;;;8.20;99.90;;;;;;5010570;28;20060;-82
2021/10/28 07:12:52;;;;;;;38.45;18.40;;;8.20;99.90;;;;;;5024369;28;20041;-85
2021/10/28 07:15:18;;;;;;;38.63;19.65;;;8.20;99.90;;;;;;5026863;28;20049;-84
2021/10/28 07:33:41;;;;;;;46.63;20.77;;;8.30;99.90;;;;;;5027193;28;20039;-84
2021/10/28 07:39:20;;;;;;;41.60;20.67;;;8.50;99.90;;;;;;5009530;28;20092;-85
2021/10/28 08:21:37;;;;;;;35.15;17.83;;;9.30;99.90;;;;;;5017543;28;20091;-84
2021/10/28 08:31:51;;;;;;;36.75;18.83;;;9.60;99.90;;;;;;5026151;28;20045;-84
2021/10/28 08:34:22;;;;;;;33.25;17.70;;;9.60;99.90;;;;;;5026179;28;20049;-84
2021/10/28 08:36:51;;;;;;;30.98;16.98;;;9.60;99.90;;;;;;5010299;28;20052;-86
2021/10/28 08:39:20;;;;;;;35.17;18.15;;;9.80;99.90;;;;;;5025038;28;20482;-86
2021/10/28 08:41:46;;;;;;;32.95;17.42;;;9.80;99.90;;;;;;5005187;28;20041;-86
2021/10/28 08:44:15;;;;;;;32.85;16.23;;;9.90;99.90;;;;;;5025288;28;20093;-84
2021/10/28 08:46:44;;;;;;;28.23;16.20;;;9.90;99.90;;;;;;5004017;28;20045;-83
2021/10/28 08:49:29;;;;;;;31.73;15.98;;;10.00;99.90;;;;;;5023449;28;20486;-83
2021/10/28 08:52:08;;;;;;;33.35;18.10;;;9.90;99.90;;;;;;5025326;28;20088;-83
2021/10/28 08:54:59;;;;;;;28.20;14.98;;;10.10;99.90;;;;;;5011713;28;20044;-83
2021/10/28 09:30:46;;;;;;;23.02;13.57;;;10.80;99.90;;;;;;5046509;28;20049;-84
2021/10/28 09:33:21;;;;;;;40.10;14.82;;;10.80;99.90;;;;;;5013596;28;20033;-84
2021/10/28 09:48:11;;;;;;;25.33;11.80;;;11.20;99.90;;;;;;5029965;28;20376;-84
2021/10/28 09:50:37;;;;;;;30.50;13.02;;;11.20;99.90;;;;;;5013780;28;20407;-82
2021/10/28 09:53:26;;;;;;;22.42;12.52;;;11.30;99.90;;;;;;5013378;28;20049;-82
2021/10/28 09:58:32;;;;;;;21.13;11.82;;;11.50;99.90;;;;;;5030218;28;20091;-82
2021/10/28 10:00:58;;;;;;;16.17;10.30;;;11.50;99.90;;;;;;5012281;28;20048;-82
2021/10/28 10:03:36;;;;;;;18.02;11.90;;;11.60;99.90;;;;;;5043901;28;20102;-82
2021/10/28 10:06:03;;;;;;;20.30;11.77;;;11.70;99.90;;;;;;5026503;28;20518;-82
2021/10/28 10:08:33;;;;;;;18.70;12.02;;;11.70;99.90;;;;;;5026559;28;20117;-82
2021/10/28 10:11:00;;;;;;;20.38;11.38;;;11.80;99.90;;;;;;5026785;28;20049;-82
2021/10/28 10:13:27;;;;;;;16.98;10.27;;;11.90;99.90;;;;;;5009417;28;20440;-81
2021/10/28 10:15:56;;;;;;;16.75;10.38;;;12.00;99.90;;;;;;4994258;28;20050;-82
2021/10/28 10:18:24;;;;;;;17.33;10.48;;;12.00;99.90;;;;;;5025699;28;20088;-83
2021/10/28 12:17:07;;;;;;;8.27;5.35;;;14.50;99.90;;;;;;5025895;28;20096;-83
2021/10/28 12:45:32;;;;;;;6.15;4.10;;;15.10;99.90;;;;;;5008442;28;20054;-84
2021/10/28 13:55:11;;;;;;;3.05;2.30;;;16.30;99.90;;;;;;5012008;28;20507;-83
2021/10/28 13:57:55;;;;;;;3.65;2.35;;;16.30;99.90;;;;;;5021434;28;20046;-83
2021/10/28 16:22:56;;;;;;;9.20;6.68;;;13.80;99.90;;;;;;5005179;28;20041;-84
2021/10/28 16:25:22;;;;;;;8.10;6.43;;;13.60;99.90;;;;;;5005055;28;20092;-83
2021/10/28 16:27:47;;;;;;;11.35;7.03;;;13.50;99.90;;;;;;5012286;28;20072;-84
2021/10/28 16:30:13;;;;;;;14.00;6.85;;;13.40;99.90;;;;;;5031064;28;20125;-84
2021/10/28 16:32:39;;;;;;;12.80;7.40;;;13.30;99.90;;;;;;5015949;28;20048;-83
2021/10/28 16:35:06;;;;;;;13.10;7.15;;;13.30;99.90;;;;;;5003164;28;20049;-85
2021/10/28 16:37:35;;;;;;;17.65;7.60;;;13.10;99.90;;;;;;5023192;28;20053;-84
2021/10/28 16:40:03;;;;;;;14.93;6.28;;;13.10;99.90;;;;;;4999612;28;20037;-85
2021/10/28 16:42:30;;;;;;;8.15;7.18;;;13.00;99.90;;;;;;5021176;28;20045;-85
2021/10/28 16:44:55;;;;;;;11.38;7.47;;;12.90;99.90;;;;;;5013885;28;20059;-85
2021/10/28 16:47:22;;;;;;;10.73;7.20;;;12.90;99.90;;;;;;5019519;28;20483;-84
2021/10/28 16:49:48;;;;;;;15.57;7.70;;;12.80;99.90;;;;;;4999013;28;20041;-84
2021/10/28 16:52:13;;;;;;;13.93;7.75;;;12.70;99.90;;;;;;4995173;28;20044;-83
2021/10/28 16:54:39;;;;;;;15.57;7.70;;;12.70;99.90;;;;;;5022624;28;20502;-84
2021/10/28 16:57:05;;;;;;;11.80;7.68;;;12.60;99.90;;;;;;5025084;28;20042;-83
2021/10/28 16:59:31;;;;;;;12.77;7.72;;;12.50;99.90;;;;;;4989269;28;20036;-83
2021/10/28 17:01:56;;;;;;;15.60;7.18;;;12.40;99.90;;;;;;5015422;28;20037;-84
2021/10/28 17:04:22;;;;;;;16.13;7.50;;;12.40;99.90;;;;;;5013739;28;20065;-84
2021/10/28 17:06:50;;;;;;;8.98;7.18;;;12.30;99.90;;;;;;4994588;28;20135;-83
2021/10/28 17:09:16;;;;;;;11.85;7.70;;;12.30;99.90;;;;;;5017596;28;20049;-84
2021/10/28 17:11:41;;;;;;;13.88;8.05;;;12.20;99.90;;;;;;4995296;28;20033;-84
2021/10/28 17:14:08;;;;;;;13.25;7.53;;;12.10;99.90;;;;;;5046071;28;20124;-85
2021/10/28 17:16:36;;;;;;;14.57;7.53;;;12.10;99.90;;;;;;5044027;28;20029;-85
2021/10/28 17:19:03;;;;;;;10.95;7.22;;;12.00;99.90;;;;;;5050015;28;20041;-84
2021/10/28 17:21:29;;;;;;;15.77;8.02;;;11.90;99.90;;;;;;5026252;28;20037;-85
2021/10/28 17:24:03;;;;;;;12.48;6.88;;;11.80;99.90;;;;;;5042138;28;20463;-84
2021/10/28 17:26:31;;;;;;;14.57;8.40;;;11.70;99.90;;;;;;5046181;28;20037;-85
2021/10/28 17:29:02;;;;;;;13.00;7.28;;;11.70;99.90;;;;;;5031574;28;20048;-85
2021/10/28 17:31:30;;;;;;;10.45;7.80;;;11.60;99.90;;;;;;5029688;28;20040;-85
2021/10/28 17:33:56;;;;;;;14.98;7.65;;;11.40;99.90;;;;;;5048184;28;20052;-84
2021/10/28 17:36:23;;;;;;;12.30;7.93;;;11.40;99.90;;;;;;5030574;28;20045;-84
2021/10/28 17:38:49;;;;;;;12.90;7.60;;;11.30;99.90;;;;;;5032968;28;20430;-85
2021/10/28 17:41:16;;;;;;;14.23;6.80;;;11.20;99.90;;;;;;5014468;28;20060;-85
2021/10/28 17:43:45;;;;;;;12.70;7.28;;;11.10;99.90;;;;;;5028049;28;20091;-85
2021/10/28 17:46:12;;;;;;;9.88;7.20;;;11.10;99.90;;;;;;5049284;28;20398;-84
2021/10/28 17:48:38;;;;;;;10.57;7.32;;;11.00;99.90;;;;;;5037605;28;20056;-85
2021/10/28 17:51:04;;;;;;;9.32;7.45;;;11.00;99.90;;;;;;5030652;28;20040;-85
2021/10/28 17:53:30;;;;;;;18.55;7.22;;;10.80;99.90;;;;;;5031061;28;20116;-85
2021/10/28 17:55:56;;;;;;;16.35;7.55;;;10.80;99.90;;;;;;5028911;28;20037;-85
2021/10/28 17:58:21;;;;;;;14.20;7.82;;;10.70;99.90;;;;;;5040814;28;20355;-85
2021/10/28 18:00:47;;;;;;;12.57;7.38;;;10.60;99.90;;;;;;5026128;28;20049;-84
2021/10/28 18:03:18;;;;;;;10.15;7.00;;;10.60;99.90;;;;;;5022648;28;20069;-85
2021/10/28 18:05:44;;;;;;;9.45;7.10;;;10.50;99.90;;;;;;5046659;28;20407;-84
2021/10/28 18:08:10;;;;;;;14.40;7.40;;;10.50;99.90;;;;;;5028983;28;20037;-85
2021/10/28 18:10:36;;;;;;;13.23;7.53;;;10.40;99.90;;;;;;5029465;28;20102;-85
2021/10/28 18:13:03;;;;;;;13.13;6.85;;;10.40;99.90;;;;;;5029289;28;20052;-85
2021/10/28 18:15:29;;;;;;;13.48;7.57;;;10.30;99.90;;;;;;5047168;28;20069;-83
2021/10/28 18:17:55;;;;;;;12.00;7.35;;;10.30;99.90;;;;;;5010169;28;20107;-85
2021/10/28 18:20:21;;;;;;;11.90;7.28;;;10.30;99.90;;;;;;5044828;28;21011;-84
2021/10/28 18:22:48;;;;;;;12.70;7.60;;;10.20;99.90;;;;;;5022178;28;20124;-84
2021/10/28 18:25:14;;;;;;;9.73;6.85;;;10.20;99.90;;;;;;5043712;28;20493;-84
2021/10/28 18:27:41;;;;;;;11.18;7.07;;;10.10;99.90;;;;;;5025612;28;20037;-85
2021/10/28 18:30:10;;;;;;;10.48;6.70;;;10.10;99.90;;;;;;5034372;28;20049;-85
2021/10/28 18:32:36;;;;;;;11.75;7.00;;;10.00;99.90;;;;;;5025408;28;20118;-85
2021/10/28 18:35:03;;;;;;;15.20;7.28;;;10.00;99.90;;;;;;5004653;28;20461;-84
2021/10/28 18:37:29;;;;;;;12.00;6.80;;;10.00;99.90;;;;;;5029864;28;20191;-85
2021/10/28 18:39:54;;;;;;;11.07;8.45;;;10.00;99.90;;;;;;5027135;28;20564;-85
2021/10/28 18:42:20;;;;;;;10.35;7.40;;;10.00;99.90;;;;;;5029513;28;20033;-85
2021/10/28 18:44:46;;;;;;;17.25;7.05;;;10.00;99.90;;;;;;5009471;28;20053;-84
2021/10/28 18:47:13;;;;;;;12.88;7.22;;;9.90;99.90;;;;;;5028372;28;20037;-86
2021/10/28 18:49:40;;;;;;;9.98;7.18;;;9.80;99.90;;;;;;5033487;28;20522;-85
2021/10/28 18:52:06;;;;;;;11.70;7.22;;;9.80;99.90;;;;;;5040839;28;20057;-85
2021/10/28 18:54:32;;;;;;;11.82;7.00;;;9.70;99.90;;;;;;5045970;28;20087;-87
2021/10/28 18:56:57;;;;;;;18.48;8.20;;;9.70;99.90;;;;;;5010402;28;20552;-86
2021/10/28 18:59:23;;;;;;;13.95;7.10;;;9.60;99.90;;;;;;5046149;28;20141;-85
2021/10/28 19:01:50;;;;;;;12.90;7.38;;;9.60;99.90;;;;;;4995413;28;20164;-85
2021/10/28 19:04:17;;;;;;;10.80;6.95;;;9.60;99.90;;;;;;5028431;28;20518;-86
2021/10/28 19:06:43;;;;;;;9.65;6.50;;;9.60;99.90;;;;;;5024182;28;20049;-85
2021/10/28 19:09:11;;;;;;;14.02;7.03;;;9.60;99.90;;;;;;5007034;28;20063;-86
2021/10/28 19:11:37;;;;;;;13.90;7.22;;;9.60;99.90;;;;;;5011126;28;20116;-85
2021/10/28 19:14:03;;;;;;;9.10;7.03;;;9.60;99.90;;;;;;4994471;28;20080;-85
2021/10/28 19:16:29;;;;;;;9.30;6.47;;;9.60;99.90;;;;;;5008919;28;20439;-86
2021/10/28 19:18:55;;;;;;;10.55;6.28;;;9.60;99.90;;;;;;5025755;28;20091;-85
2021/10/28 19:21:21;;;;;;;10.80;6.57;;;9.70;99.90;;;;;;5012243;28;20033;-85
2021/10/28 19:23:47;;;;;;;9.90;6.68;;;9.70;99.90;;;;;;5034972;28;20041;-85
2021/10/28 19:26:13;;;;;;;19.27;6.57;;;9.70;99.90;;;;;;5006486;28;20432;-88
2021/10/28 19:28:42;;;;;;;13.60;6.28;;;9.70;99.90;;;;;;5024405;28;20037;-87
2021/10/28 19:31:14;;;;;;;8.82;6.05;;;9.70;99.90;;;;;;5029733;28;20049;-86
2021/10/28 19:33:52;;;;;;;23.90;6.30;;;9.70;99.90;;;;;;4979936;28;20107;-86
2021/10/28 19:36:53;;;;;;;10.75;6.63;;;9.70;99.90;;;;;;5007323;28;20123;-85
2021/10/28 19:46:58;;;;;;;15.10;6.97;;;9.80;99.90;;;;;;5024861;28;20327;-86
2021/10/28 19:49:25;;;;;;;12.63;7.32;;;9.70;99.90;;;;;;5011283;28;20514;-82
2021/10/28 19:51:51;;;;;;;12.93;6.60;;;9.70;99.90;;;;;;5006661;28;20046;-82
2021/10/28 19:54:17;;;;;;;8.25;6.88;;;9.70;99.90;;;;;;5029983;28;20052;-82
2021/10/28 19:56:44;;;;;;;14.80;7.22;;;9.70;99.90;;;;;;5026183;28;20938;-82
2021/10/28 19:59:12;;;;;;;15.00;6.63;;;9.70;99.90;;;;;;4981457;28;20293;-82
2021/10/28 20:22:44;;;;;;;9.90;6.95;;;9.20;99.90;;;;;;5009735;28;20045;-95
2021/10/28 20:25:13;;;;;;;12.02;7.43;;;9.10;99.90;;;;;;5000361;28;20125;-93
2021/10/28 20:27:40;;;;;;;12.35;7.45;;;9.10;99.90;;;;;;4994190;28;20120;-96
2021/10/28 20:30:09;;;;;;;10.45;7.10;;;9.10;99.90;;;;;;4990634;28;20124;-95
2021/10/28 20:32:35;;;;;;;13.15;8.00;;;9.10;99.90;;;;;;4988522;28;20092;-95
2021/10/28 20:35:10;;;;;;;13.18;8.25;;;9.00;99.90;;;;;;4991448;28;20045;-95
2021/10/28 20:37:37;;;;;;;13.23;7.88;;;9.00;99.90;;;;;;4998616;28;20127;-92
2021/10/28 20:40:06;;;;;;;13.63;9.23;;;8.90;99.90;;;;;;4996385;28;20037;-95
2021/10/28 20:42:40;;;;;;;14.32;8.43;;;9.00;99.90;;;;;;4990942;28;20119;-96
2021/10/28 20:45:12;;;;;;;13.60;8.40;;;9.00;99.90;;;;;;4996197;28;20621;-94
2021/10/28 20:47:43;;;;;;;19.02;8.98;;;8.90;99.90;;;;;;4996292;28;20076;-96
2021/10/28 20:50:28;;;;;;;15.77;8.52;;;8.90;99.90;;;;;;5013764;28;20044;-96
2021/10/28 20:53:00;;;;;;;14.13;8.77;;;8.90;99.90;;;;;;4985303;28;20077;-96
2021/10/28 20:55:26;;;;;;;15.98;8.40;;;8.90;99.90;;;;;;4998899;28;20053;-96
2021/10/28 20:57:52;;;;;;;12.70;9.13;;;8.90;99.90;;;;;;5007751;28;20047;-96
2021/10/28 21:00:20;;;;;;;15.10;9.18;;;8.80;99.90;;;;;;4995625;28;20041;-96
2021/10/28 21:02:46;;;;;;;16.90;9.88;;;8.80;99.90;;;;;;5012948;28;20124;-95
2021/10/28 21:05:18;;;;;;;20.50;9.55;;;8.80;99.90;;;;;;4985830;28;20500;-95
2021/10/28 21:07:44;;;;;;;15.35;9.80;;;8.80;99.90;;;;;;5000336;28;20084;-95
2021/10/28 21:10:13;;;;;;;17.67;9.77;;;8.80;99.90;;;;;;4999636;28;20539;-96
2021/10/28 21:12:40;;;;;;;16.75;10.10;;;8.80;99.90;;;;;;4998889;28;20073;-95
2021/10/28 21:15:08;;;;;;;20.75;10.93;;;8.80;99.90;;;;;;4992061;28;20038;-95
2021/10/28 21:17:34;;;;;;;14.32;10.25;;;8.80;99.90;;;;;;5008497;28;20516;-95
2021/10/28 21:20:11;;;;;;;15.48;9.68;;;8.90;99.90;;;;;;4976911;28;20042;-96
2021/10/28 21:22:38;;;;;;;19.48;11.05;;;8.80;99.90;;;;;;4984782;28;20080;-96
2021/10/28 21:26:26;;;;;;;;;;;;;;;;;;;;;
2021/10/28 21:32:18;;;;;;;27.80;11.77;;;8.80;99.90;;;;;;4858609;29;20045;-96
2021/10/28 21:34:51;;;;;;;19.10;11.95;;;8.90;99.90;;;;;;4850461;29;20129;-96
2021/10/28 21:37:31;;;;;;;17.80;11.07;;;8.80;99.90;;;;;;4919432;29;20082;-96
2021/10/28 21:39:59;;;;;;;18.00;11.63;;;8.80;99.90;;;;;;4917962;29;20047;-96
2021/10/28 21:42:33;;;;;;;19.95;12.80;;;8.80;99.90;;;;;;4897518;29;20055;-96
2021/10/28 21:45:11;;;;;;;21.00;11.38;;;8.70;99.90;;;;;;4923276;29;20543;-96
2021/10/28 21:47:38;;;;;;;17.65;11.07;;;8.80;99.90;;;;;;4923675;29;20039;-93
2021/10/28 21:50:09;;;;;;;25.38;14.20;;;8.70;99.90;;;;;;4922972;29;20115;-96
2021/10/28 21:52:37;;;;;;;18.77;12.00;;;8.70;99.90;;;;;;4951504;28;20051;-96
2021/10/28 22:25:16;;;;;;;23.42;15.45;;;8.40;99.90;;;;;;5008622;28;20787;-90
2021/10/28 22:27:42;;;;;;;29.08;15.57;;;8.40;99.90;;;;;;5012316;28;20527;-91
2021/10/28 22:30:11;;;;;;;24.92;15.45;;;8.40;99.90;;;;;;4983667;28;20051;-91
2021/10/28 22:32:39;;;;;;;23.63;15.27;;;8.30;99.90;;;;;;4996292;28;20041;-91
2021/10/28 22:35:09;;;;;;;23.88;15.93;;;8.30;99.90;;;;;;4994840;28;20434;-91
2021/10/28 22:37:43;;;;;;;35.97;16.02;;;8.30;99.90;;;;;;4992318;28;20328;-91
2021/10/28 22:42:39;;;;;;;41.15;18.58;;;8.30;99.90;;;;;;5014698;28;20045;-91
2021/10/28 22:45:06;;;;;;;27.05;16.45;;;8.30;99.90;;;;;;4996644;28;20033;-91
2021/10/28 22:47:31;;;;;;;29.08;15.90;;;8.20;99.90;;;;;;5009772;28;20076;-94
2021/10/28 22:49:58;;;;;;;29.98;17.23;;;8.20;99.90;;;;;;5017125;28;20072;-92
2021/10/28 22:52:31;;;;;;;28.27;17.13;;;8.20;99.90;;;;;;4998848;28;20121;-93
2021/10/28 22:55:10;;;;;;;32.10;17.48;;;8.10;99.90;;;;;;5014849;28;20045;-92